< < Back
Terminal Aerodrome Forecast


Current Version              Previous Versions:   1  2  3  4  5  6  7  8  9  

Terminal Aerodrome Forecast

550
FTUS42 KTAE 251700
TAFTLH
TAF
KTLH 251723Z 2518/2618 22008KT P6SM VCTS BKN040CB
     FM260000 23003KT P6SM BKN250
     FM260900 22003KT P6SM BKN020
     FM261400 24006KT P6SM SCT030=

Latest METAR

088
SAUS80 KWBC 260900 RRC
MTRTLH
METAR KTLH 260853Z AUTO 21003KT 7SM BKN060 25/23 A3002 RMK AO2 SLP164
T02500233 55003


USA.gov is the U.S. government's official web portal to all federal, state and local government web resources and services.